sensor_id;sensor_type;location;lat;lon;timestamp;P1;durP1;ratioP1;P2;durP2;ratioP2
31798;SDS011;18374;51.136;3.502;2023-07-29T00:00:10;3.58;;;2.10;;
31798;SDS011;18374;51.136;3.502;2023-07-29T00:02:40;3.85;;;2.28;;
31798;SDS011;18374;51.136;3.502;2023-07-29T00:05:09;4.63;;;2.17;;
31798;SDS011;18374;51.136;3.502;2023-07-29T00:07:36;6.88;;;2.50;;
31798;SDS011;18374;51.136;3.502;2023-07-29T00:10:04;4.72;;;2.05;;
31798;SDS011;18374;51.136;3.502;2023-07-29T00:12:33;3.55;;;2.20;;
31798;SDS011;18374;51.136;3.502;2023-07-29T00:15:01;3.78;;;2.13;;
31798;SDS011;18374;51.136;3.502;2023-07-29T00:17:28;7.68;;;2.25;;
31798;SDS011;18374;51.136;3.502;2023-07-29T00:19:56;3.25;;;2.53;;
31798;SDS011;18374;51.136;3.502;2023-07-29T00:22:24;2.42;;;2.03;;
31798;SDS011;18374;51.136;3.502;2023-07-29T00:24:52;3.15;;;2.03;;
31798;SDS011;18374;51.136;3.502;2023-07-29T00:27:24;3.92;;;2.08;;
31798;SDS011;18374;51.136;3.502;2023-07-29T00:29:54;3.60;;;2.15;;
31798;SDS011;18374;51.136;3.502;2023-07-29T00:32:22;5.82;;;2.10;;
31798;SDS011;18374;51.136;3.502;2023-07-29T00:34:50;3.83;;;2.30;;
31798;SDS011;18374;51.136;3.502;2023-07-29T00:37:17;6.65;;;2.08;;
31798;SDS011;18374;51.136;3.502;2023-07-29T00:39:45;3.47;;;2.17;;
31798;SDS011;18374;51.136;3.502;2023-07-29T00:42:13;2.35;;;1.92;;
31798;SDS011;18374;51.136;3.502;2023-07-29T00:44:41;3.30;;;1.92;;
31798;SDS011;18374;51.136;3.502;2023-07-29T00:47:09;4.13;;;2.42;;
31798;SDS011;18374;51.136;3.502;2023-07-29T00:49:38;5.90;;;1.98;;
31798;SDS011;18374;51.136;3.502;2023-07-29T00:52:06;3.83;;;2.20;;
31798;SDS011;18374;51.136;3.502;2023-07-29T00:54:34;4.28;;;2.22;;
31798;SDS011;18374;51.136;3.502;2023-07-29T00:57:03;3.88;;;2.15;;
31798;SDS011;18374;51.136;3.502;2023-07-29T00:59:31;3.67;;;2.35;;
31798;SDS011;18374;51.136;3.502;2023-07-29T01:01:59;4.03;;;2.25;;
31798;SDS011;18374;51.136;3.502;2023-07-29T01:04:27;3.75;;;2.58;;
31798;SDS011;18374;51.136;3.502;2023-07-29T01:06:58;3.17;;;2.10;;
31798;SDS011;18374;51.136;3.502;2023-07-29T01:10:10;2.95;;;1.85;;
31798;SDS011;18374;51.136;3.502;2023-07-29T01:15:30;4.10;;;2.45;;
31798;SDS011;18374;51.136;3.502;2023-07-29T01:18:28;2.80;;;2.20;;
31798;SDS011;18374;51.136;3.502;2023-07-29T01:20:59;16.67;;;2.75;;
31798;SDS011;18374;51.136;3.502;2023-07-29T01:23:31;3.42;;;2.20;;
31798;SDS011;18374;51.136;3.502;2023-07-29T01:26:01;3.90;;;2.30;;
31798;SDS011;18374;51.136;3.502;2023-07-29T01:28:30;4.13;;;2.55;;
31798;SDS011;18374;51.136;3.502;2023-07-29T01:31:01;3.20;;;2.40;;
31798;SDS011;18374;51.136;3.502;2023-07-29T01:33:55;7.60;;;2.28;;
31798;SDS011;18374;51.136;3.502;2023-07-29T01:36:52;4.32;;;2.45;;
31798;SDS011;18374;51.136;3.502;2023-07-29T01:39:21;4.30;;;2.60;;
31798;SDS011;18374;51.136;3.502;2023-07-29T01:41:51;3.42;;;2.22;;
31798;SDS011;18374;51.136;3.502;2023-07-29T01:44:18;5.65;;;2.95;;
31798;SDS011;18374;51.136;3.502;2023-07-29T01:46:47;2.78;;;2.40;;
31798;SDS011;18374;51.136;3.502;2023-07-29T01:49:14;5.40;;;2.78;;
31798;SDS011;18374;51.136;3.502;2023-07-29T01:51:42;5.53;;;2.67;;
31798;SDS011;18374;51.136;3.502;2023-07-29T01:54:10;3.13;;;2.55;;
31798;SDS011;18374;51.136;3.502;2023-07-29T01:56:38;4.38;;;2.67;;
31798;SDS011;18374;51.136;3.502;2023-07-29T01:59:06;76.63;;;5.72;;
31798;SDS011;18374;51.136;3.502;2023-07-29T02:01:34;6.60;;;2.50;;
31798;SDS011;18374;51.136;3.502;2023-07-29T02:04:03;4.47;;;2.70;;
31798;SDS011;18374;51.136;3.502;2023-07-29T02:06:31;5.32;;;2.50;;
31798;SDS011;18374;51.136;3.502;2023-07-29T02:08:58;4.13;;;2.60;;
31798;SDS011;18374;51.136;3.502;2023-07-29T02:11:26;3.28;;;2.53;;
31798;SDS011;18374;51.136;3.502;2023-07-29T02:13:55;4.25;;;2.95;;
31798;SDS011;18374;51.136;3.502;2023-07-29T02:16:24;4.85;;;2.63;;
31798;SDS011;18374;51.136;3.502;2023-07-29T02:18:52;4.55;;;2.67;;
31798;SDS011;18374;51.136;3.502;2023-07-29T02:21:22;26.33;;;3.42;;
31798;SDS011;18374;51.136;3.502;2023-07-29T02:23:50;4.40;;;2.80;;
31798;SDS011;18374;51.136;3.502;2023-07-29T02:26:18;3.95;;;2.50;;
31798;SDS011;18374;51.136;3.502;2023-07-29T02:28:46;4.35;;;2.53;;
31798;SDS011;18374;51.136;3.502;2023-07-29T02:31:15;4.57;;;2.40;;
31798;SDS011;18374;51.136;3.502;2023-07-29T02:36:19;4.20;;;2.47;;
31798;SDS011;18374;51.136;3.502;2023-07-29T02:38:47;2.67;;;2.20;;
31798;SDS011;18374;51.136;3.502;2023-07-29T02:41:14;3.78;;;2.40;;
31798;SDS011;18374;51.136;3.502;2023-07-29T02:43:43;3.15;;;2.25;;
31798;SDS011;18374;51.136;3.502;2023-07-29T02:46:16;3.90;;;2.40;;
31798;SDS011;18374;51.136;3.502;2023-07-29T02:48:45;4.78;;;2.80;;
31798;SDS011;18374;51.136;3.502;2023-07-29T02:51:13;5.45;;;2.97;;
31798;SDS011;18374;51.136;3.502;2023-07-29T02:53:41;250.52;;;11.27;;
31798;SDS011;18374;51.136;3.502;2023-07-29T02:56:09;6.60;;;2.95;;
31798;SDS011;18374;51.136;3.502;2023-07-29T02:58:37;4.80;;;2.70;;
31798;SDS011;18374;51.136;3.502;2023-07-29T03:01:05;7.47;;;3.17;;
31798;SDS011;18374;51.136;3.502;2023-07-29T03:03:33;4.65;;;2.70;;
31798;SDS011;18374;51.136;3.502;2023-07-29T03:06:03;3.78;;;2.78;;
31798;SDS011;18374;51.136;3.502;2023-07-29T03:08:34;4.38;;;2.45;;
31798;SDS011;18374;51.136;3.502;2023-07-29T03:11:09;5.55;;;2.80;;
31798;SDS011;18374;51.136;3.502;2023-07-29T03:13:40;4.10;;;2.58;;
31798;SDS011;18374;51.136;3.502;2023-07-29T03:16:08;6.18;;;2.55;;
31798;SDS011;18374;51.136;3.502;2023-07-29T03:18:48;5.40;;;2.92;;
31798;SDS011;18374;51.136;3.502;2023-07-29T03:21:16;6.90;;;2.90;;
31798;SDS011;18374;51.136;3.502;2023-07-29T03:23:44;5.93;;;2.78;;
31798;SDS011;18374;51.136;3.502;2023-07-29T03:26:12;17.60;;;3.72;;
31798;SDS011;18374;51.136;3.502;2023-07-29T03:28:41;6.90;;;2.92;;
31798;SDS011;18374;51.136;3.502;2023-07-29T03:31:10;5.45;;;2.83;;
31798;SDS011;18374;51.136;3.502;2023-07-29T03:33:39;21.60;;;3.67;;
31798;SDS011;18374;51.136;3.502;2023-07-29T03:36:06;52.25;;;5.07;;
31798;SDS011;18374;51.136;3.502;2023-07-29T03:38:34;6.38;;;2.75;;
31798;SDS011;18374;51.136;3.502;2023-07-29T03:41:08;3.13;;;2.17;;
31798;SDS011;18374;51.136;3.502;2023-07-29T03:43:36;5.50;;;2.38;;
31798;SDS011;18374;51.136;3.502;2023-07-29T03:46:03;6.57;;;2.65;;
31798;SDS011;18374;51.136;3.502;2023-07-29T03:48:36;4.22;;;2.40;;
31798;SDS011;18374;51.136;3.502;2023-07-29T03:51:05;3.25;;;2.10;;
31798;SDS011;18374;51.136;3.502;2023-07-29T03:53:33;4.22;;;2.70;;
31798;SDS011;18374;51.136;3.502;2023-07-29T03:56:01;5.35;;;2.40;;
31798;SDS011;18374;51.136;3.502;2023-07-29T03:58:29;3.15;;;2.35;;
31798;SDS011;18374;51.136;3.502;2023-07-29T04:00:56;3.60;;;2.58;;
31798;SDS011;18374;51.136;3.502;2023-07-29T04:03:24;4.28;;;2.42;;
31798;SDS011;18374;51.136;3.502;2023-07-29T04:05:54;3.63;;;2.67;;
31798;SDS011;18374;51.136;3.502;2023-07-29T04:08:22;5.32;;;3.10;;
31798;SDS011;18374;51.136;3.502;2023-07-29T04:10:50;6.65;;;3.10;;
31798;SDS011;18374;51.136;3.502;2023-07-29T04:13:18;5.70;;;3.00;;
31798;SDS011;18374;51.136;3.502;2023-07-29T04:15:46;3.78;;;2.42;;
31798;SDS011;18374;51.136;3.502;2023-07-29T04:18:14;6.28;;;2.88;;
31798;SDS011;18374;51.136;3.502;2023-07-29T04:20:43;6.25;;;3.50;;
31798;SDS011;18374;51.136;3.502;2023-07-29T04:23:11;6.65;;;4.50;;
31798;SDS011;18374;51.136;3.502;2023-07-29T04:25:38;5.43;;;3.20;;
31798;SDS011;18374;51.136;3.502;2023-07-29T04:28:06;7.22;;;3.42;;
31798;SDS011;18374;51.136;3.502;2023-07-29T04:30:34;6.13;;;2.95;;
31798;SDS011;18374;51.136;3.502;2023-07-29T04:33:02;7.88;;;3.42;;
31798;SDS011;18374;51.136;3.502;2023-07-29T04:35:30;6.85;;;3.80;;
31798;SDS011;18374;51.136;3.502;2023-07-29T04:37:58;5.25;;;3.67;;
31798;SDS011;18374;51.136;3.502;2023-07-29T04:40:26;8.43;;;3.58;;
31798;SDS011;18374;51.136;3.502;2023-07-29T04:42:54;4.88;;;3.47;;
31798;SDS011;18374;51.136;3.502;2023-07-29T04:45:22;6.93;;;3.47;;
31798;SDS011;18374;51.136;3.502;2023-07-29T04:47:50;6.50;;;3.40;;
31798;SDS011;18374;51.136;3.502;2023-07-29T04:50:18;4.82;;;3.45;;
31798;SDS011;18374;51.136;3.502;2023-07-29T04:52:45;6.20;;;3.13;;
31798;SDS011;18374;51.136;3.502;2023-07-29T04:55:13;7.30;;;3.35;;
31798;SDS011;18374;51.136;3.502;2023-07-29T04:57:41;5.18;;;3.50;;
31798;SDS011;18374;51.136;3.502;2023-07-29T05:00:09;5.25;;;3.50;;
31798;SDS011;18374;51.136;3.502;2023-07-29T05:02:38;6.75;;;3.40;;
31798;SDS011;18374;51.136;3.502;2023-07-29T05:05:06;7.00;;;3.80;;
31798;SDS011;18374;51.136;3.502;2023-07-29T05:07:35;6.88;;;3.40;;
31798;SDS011;18374;51.136;3.502;2023-07-29T05:10:02;6.40;;;3.65;;
31798;SDS011;18374;51.136;3.502;2023-07-29T05:12:31;8.05;;;3.92;;
31798;SDS011;18374;51.136;3.502;2023-07-29T05:14:59;9.73;;;4.30;;
31798;SDS011;18374;51.136;3.502;2023-07-29T05:17:27;4.68;;;3.42;;
31798;SDS011;18374;51.136;3.502;2023-07-29T05:19:55;7.78;;;3.17;;
31798;SDS011;18374;51.136;3.502;2023-07-29T05:22:23;6.50;;;3.28;;
31798;SDS011;18374;51.136;3.502;2023-07-29T05:24:52;9.82;;;3.55;;
31798;SDS011;18374;51.136;3.502;2023-07-29T05:27:19;12.93;;;4.00;;
31798;SDS011;18374;51.136;3.502;2023-07-29T05:29:47;8.27;;;3.97;;
31798;SDS011;18374;51.136;3.502;2023-07-29T05:32:15;5.35;;;3.67;;
31798;SDS011;18374;51.136;3.502;2023-07-29T05:34:43;6.15;;;4.07;;
31798;SDS011;18374;51.136;3.502;2023-07-29T05:37:10;5.30;;;3.33;;
31798;SDS011;18374;51.136;3.502;2023-07-29T05:39:38;6.10;;;3.88;;
31798;SDS011;18374;51.136;3.502;2023-07-29T05:42:06;8.10;;;3.90;;
31798;SDS011;18374;51.136;3.502;2023-07-29T05:44:35;7.20;;;3.55;;
31798;SDS011;18374;51.136;3.502;2023-07-29T05:47:03;7.38;;;4.05;;
31798;SDS011;18374;51.136;3.502;2023-07-29T05:49:31;7.43;;;4.10;;
31798;SDS011;18374;51.136;3.502;2023-07-29T05:51:59;7.57;;;3.95;;
31798;SDS011;18374;51.136;3.502;2023-07-29T05:54:27;6.93;;;3.47;;
31798;SDS011;18374;51.136;3.502;2023-07-29T05:56:55;7.22;;;3.25;;
31798;SDS011;18374;51.136;3.502;2023-07-29T05:59:23;6.18;;;3.67;;
31798;SDS011;18374;51.136;3.502;2023-07-29T06:01:52;6.07;;;3.50;;
31798;SDS011;18374;51.136;3.502;2023-07-29T06:04:20;5.55;;;3.53;;
31798;SDS011;18374;51.136;3.502;2023-07-29T06:06:48;11.38;;;3.45;;
31798;SDS011;18374;51.136;3.502;2023-07-29T06:09:16;4.72;;;3.42;;
31798;SDS011;18374;51.136;3.502;2023-07-29T06:11:44;5.10;;;3.35;;
31798;SDS011;18374;51.136;3.502;2023-07-29T06:14:12;4.72;;;3.42;;
31798;SDS011;18374;51.136;3.502;2023-07-29T06:16:40;7.25;;;3.88;;
31798;SDS011;18374;51.136;3.502;2023-07-29T06:19:08;9.55;;;3.38;;
31798;SDS011;18374;51.136;3.502;2023-07-29T06:21:36;5.25;;;2.75;;
31798;SDS011;18374;51.136;3.502;2023-07-29T06:24:04;4.40;;;3.03;;
31798;SDS011;18374;51.136;3.502;2023-07-29T06:26:35;4.93;;;3.00;;
31798;SDS011;18374;51.136;3.502;2023-07-29T06:29:03;3.10;;;2.55;;
31798;SDS011;18374;51.136;3.502;2023-07-29T06:31:31;6.07;;;2.65;;
31798;SDS011;18374;51.136;3.502;2023-07-29T06:33:59;5.20;;;2.13;;
31798;SDS011;18374;51.136;3.502;2023-07-29T06:36:27;4.15;;;2.33;;
31798;SDS011;18374;51.136;3.502;2023-07-29T06:38:55;5.68;;;2.47;;
31798;SDS011;18374;51.136;3.502;2023-07-29T06:41:23;2.38;;;2.05;;
31798;SDS011;18374;51.136;3.502;2023-07-29T06:43:50;5.03;;;2.20;;
31798;SDS011;18374;51.136;3.502;2023-07-29T06:46:18;4.57;;;2.20;;
31798;SDS011;18374;51.136;3.502;2023-07-29T06:48:46;7.15;;;2.60;;
31798;SDS011;18374;51.136;3.502;2023-07-29T06:51:14;7.78;;;2.15;;
31798;SDS011;18374;51.136;3.502;2023-07-29T06:53:41;4.75;;;2.15;;
31798;SDS011;18374;51.136;3.502;2023-07-29T06:56:09;6.65;;;2.15;;
31798;SDS011;18374;51.136;3.502;2023-07-29T06:58:37;3.97;;;2.28;;
31798;SDS011;18374;51.136;3.502;2023-07-29T07:01:05;3.17;;;1.90;;
31798;SDS011;18374;51.136;3.502;2023-07-29T07:03:32;4.20;;;2.08;;
31798;SDS011;18374;51.136;3.502;2023-07-29T07:06:00;2.83;;;2.20;;
31798;SDS011;18374;51.136;3.502;2023-07-29T07:08:28;2.85;;;2.13;;
31798;SDS011;18374;51.136;3.502;2023-07-29T07:10:57;6.35;;;2.33;;
31798;SDS011;18374;51.136;3.502;2023-07-29T07:13:25;2.40;;;1.90;;
31798;SDS011;18374;51.136;3.502;2023-07-29T07:15:56;3.78;;;2.17;;
31798;SDS011;18374;51.136;3.502;2023-07-29T07:18:24;2.33;;;1.77;;
31798;SDS011;18374;51.136;3.502;2023-07-29T07:20:52;3.95;;;1.95;;
31798;SDS011;18374;51.136;3.502;2023-07-29T07:23:19;5.13;;;2.10;;
31798;SDS011;18374;51.136;3.502;2023-07-29T07:25:47;9.23;;;1.83;;
31798;SDS011;18374;51.136;3.502;2023-07-29T07:28:15;3.60;;;1.92;;
31798;SDS011;18374;51.136;3.502;2023-07-29T07:30:43;2.20;;;1.95;;
31798;SDS011;18374;51.136;3.502;2023-07-29T07:33:10;3.47;;;1.92;;
31798;SDS011;18374;51.136;3.502;2023-07-29T07:35:38;2.92;;;1.73;;
31798;SDS011;18374;51.136;3.502;2023-07-29T07:38:06;4.35;;;1.40;;
31798;SDS011;18374;51.136;3.502;2023-07-29T07:40:35;2.20;;;1.70;;
31798;SDS011;18374;51.136;3.502;2023-07-29T07:43:03;2.45;;;1.90;;
31798;SDS011;18374;51.136;3.502;2023-07-29T07:45:34;3.35;;;1.70;;
31798;SDS011;18374;51.136;3.502;2023-07-29T07:48:02;2.83;;;1.55;;
31798;SDS011;18374;51.136;3.502;2023-07-29T07:50:30;4.25;;;1.73;;
31798;SDS011;18374;51.136;3.502;2023-07-29T07:52:58;4.57;;;1.70;;
31798;SDS011;18374;51.136;3.502;2023-07-29T07:55:26;5.47;;;1.80;;
31798;SDS011;18374;51.136;3.502;2023-07-29T07:57:54;5.07;;;2.00;;
31798;SDS011;18374;51.136;3.502;2023-07-29T08:00:22;4.22;;;2.05;;
31798;SDS011;18374;51.136;3.502;2023-07-29T08:02:49;4.93;;;1.73;;
31798;SDS011;18374;51.136;3.502;2023-07-29T08:05:17;2.33;;;1.52;;
31798;SDS011;18374;51.136;3.502;2023-07-29T08:07:45;4.40;;;1.77;;
31798;SDS011;18374;51.136;3.502;2023-07-29T08:10:13;2.20;;;1.77;;
31798;SDS011;18374;51.136;3.502;2023-07-29T08:12:41;3.38;;;1.88;;
31798;SDS011;18374;51.136;3.502;2023-07-29T08:15:09;2.45;;;1.48;;
31798;SDS011;18374;51.136;3.502;2023-07-29T08:17:36;6.63;;;1.88;;
31798;SDS011;18374;51.136;3.502;2023-07-29T08:20:04;3.47;;;2.00;;
31798;SDS011;18374;51.136;3.502;2023-07-29T08:22:33;4.50;;;2.35;;
31798;SDS011;18374;51.136;3.502;2023-07-29T08:25:01;3.90;;;2.45;;
31798;SDS011;18374;51.136;3.502;2023-07-29T08:27:29;5.18;;;2.10;;
31798;SDS011;18374;51.136;3.502;2023-07-29T08:29:56;4.10;;;2.35;;
31798;SDS011;18374;51.136;3.502;2023-07-29T08:32:24;6.72;;;3.00;;
31798;SDS011;18374;51.136;3.502;2023-07-29T08:34:52;4.50;;;2.80;;
31798;SDS011;18374;51.136;3.502;2023-07-29T08:37:20;6.07;;;2.58;;
31798;SDS011;18374;51.136;3.502;2023-07-29T08:39:48;7.43;;;3.10;;
31798;SDS011;18374;51.136;3.502;2023-07-29T08:42:16;3.95;;;2.70;;
31798;SDS011;18374;51.136;3.502;2023-07-29T08:44:46;4.80;;;2.42;;
31798;SDS011;18374;51.136;3.502;2023-07-29T08:47:16;5.30;;;2.63;;
31798;SDS011;18374;51.136;3.502;2023-07-29T08:49:46;5.10;;;2.90;;
31798;SDS011;18374;51.136;3.502;2023-07-29T08:52:14;4.32;;;2.90;;
31798;SDS011;18374;51.136;3.502;2023-07-29T08:54:43;7.97;;;3.08;;
31798;SDS011;18374;51.136;3.502;2023-07-29T08:57:10;4.80;;;2.72;;
31798;SDS011;18374;51.136;3.502;2023-07-29T08:59:38;5.57;;;2.55;;
31798;SDS011;18374;51.136;3.502;2023-07-29T09:02:07;7.93;;;2.90;;
31798;SDS011;18374;51.136;3.502;2023-07-29T09:04:35;3.78;;;2.60;;
31798;SDS011;18374;51.136;3.502;2023-07-29T09:07:03;9.38;;;2.60;;
31798;SDS011;18374;51.136;3.502;2023-07-29T09:09:33;4.15;;;2.30;;
31798;SDS011;18374;51.136;3.502;2023-07-29T09:12:01;5.15;;;2.25;;
31798;SDS011;18374;51.136;3.502;2023-07-29T09:14:29;4.53;;;2.15;;
31798;SDS011;18374;51.136;3.502;2023-07-29T09:16:57;3.17;;;2.88;;
31798;SDS011;18374;51.136;3.502;2023-07-29T09:19:25;7.18;;;2.83;;
31798;SDS011;18374;51.136;3.502;2023-07-29T09:21:54;9.48;;;2.70;;
31798;SDS011;18374;51.136;3.502;2023-07-29T09:24:21;4.30;;;2.38;;
31798;SDS011;18374;51.136;3.502;2023-07-29T09:26:50;8.25;;;2.83;;
31798;SDS011;18374;51.136;3.502;2023-07-29T09:29:21;5.13;;;2.67;;
31798;SDS011;18374;51.136;3.502;2023-07-29T09:31:50;6.68;;;2.70;;
31798;SDS011;18374;51.136;3.502;2023-07-29T09:34:18;4.05;;;2.50;;
31798;SDS011;18374;51.136;3.502;2023-07-29T09:36:46;3.28;;;2.28;;
31798;SDS011;18374;51.136;3.502;2023-07-29T09:39:17;4.75;;;2.60;;
31798;SDS011;18374;51.136;3.502;2023-07-29T09:41:48;3.35;;;2.28;;
31798;SDS011;18374;51.136;3.502;2023-07-29T09:44:18;4.40;;;2.15;;
31798;SDS011;18374;51.136;3.502;2023-07-29T09:46:46;4.28;;;2.38;;
31798;SDS011;18374;51.136;3.502;2023-07-29T09:49:14;4.55;;;2.10;;
31798;SDS011;18374;51.136;3.502;2023-07-29T09:51:42;3.70;;;2.13;;
31798;SDS011;18374;51.136;3.502;2023-07-29T09:54:10;3.97;;;2.90;;
31798;SDS011;18374;51.136;3.502;2023-07-29T09:56:41;3.72;;;2.45;;
31798;SDS011;18374;51.136;3.502;2023-07-29T09:59:11;3.67;;;2.60;;
31798;SDS011;18374;51.136;3.502;2023-07-29T10:01:40;3.35;;;2.55;;
31798;SDS011;18374;51.136;3.502;2023-07-29T10:04:08;3.83;;;2.10;;
31798;SDS011;18374;51.136;3.502;2023-07-29T10:06:40;4.50;;;1.83;;
31798;SDS011;18374;51.136;3.502;2023-07-29T10:09:11;6.55;;;2.63;;
31798;SDS011;18374;51.136;3.502;2023-07-29T10:11:40;3.70;;;2.30;;
31798;SDS011;18374;51.136;3.502;2023-07-29T10:14:09;2.53;;;1.92;;
31798;SDS011;18374;51.136;3.502;2023-07-29T10:16:39;6.22;;;2.08;;
31798;SDS011;18374;51.136;3.502;2023-07-29T10:19:09;4.45;;;2.15;;
31798;SDS011;18374;51.136;3.502;2023-07-29T10:21:38;4.35;;;2.08;;
31798;SDS011;18374;51.136;3.502;2023-07-29T10:24:09;3.28;;;2.20;;
31798;SDS011;18374;51.136;3.502;2023-07-29T10:26:46;5.15;;;1.90;;
31798;SDS011;18374;51.136;3.502;2023-07-29T10:29:19;7.03;;;2.00;;
31798;SDS011;18374;51.136;3.502;2023-07-29T10:31:48;4.68;;;1.80;;
31798;SDS011;18374;51.136;3.502;2023-07-29T10:34:20;3.72;;;1.77;;
31798;SDS011;18374;51.136;3.502;2023-07-29T10:36:50;3.60;;;1.70;;
31798;SDS011;18374;51.136;3.502;2023-07-29T10:39:20;5.13;;;1.77;;
31798;SDS011;18374;51.136;3.502;2023-07-29T10:42:01;3.40;;;2.13;;
31798;SDS011;18374;51.136;3.502;2023-07-29T10:47:13;2.63;;;1.80;;
31798;SDS011;18374;51.136;3.502;2023-07-29T10:49:42;5.35;;;2.03;;
31798;SDS011;18374;51.136;3.502;2023-07-29T10:52:14;1.98;;;1.77;;
31798;SDS011;18374;51.136;3.502;2023-07-29T10:54:44;2.30;;;1.90;;
31798;SDS011;18374;51.136;3.502;2023-07-29T10:57:15;2.72;;;1.95;;
31798;SDS011;18374;51.136;3.502;2023-07-29T10:59:57;4.45;;;2.05;;
31798;SDS011;18374;51.136;3.502;2023-07-29T11:02:35;3.25;;;2.03;;
31798;SDS011;18374;51.136;3.502;2023-07-29T11:05:05;3.00;;;1.85;;
31798;SDS011;18374;51.136;3.502;2023-07-29T11:07:53;2.58;;;1.80;;
31798;SDS011;18374;51.136;3.502;2023-07-29T11:10:21;4.55;;;2.05;;
31798;SDS011;18374;51.136;3.502;2023-07-29T11:12:49;4.03;;;1.70;;
31798;SDS011;18374;51.136;3.502;2023-07-29T11:17:59;3.53;;;1.60;;
31798;SDS011;18374;51.136;3.502;2023-07-29T11:20:29;2.83;;;1.98;;
31798;SDS011;18374;51.136;3.502;2023-07-29T11:23:02;2.38;;;1.90;;
31798;SDS011;18374;51.136;3.502;2023-07-29T11:25:31;1.83;;;1.55;;
31798;SDS011;18374;51.136;3.502;2023-07-29T11:28:00;6.55;;;2.28;;
31798;SDS011;18374;51.136;3.502;2023-07-29T11:30:32;2.33;;;1.67;;
31798;SDS011;18374;51.136;3.502;2023-07-29T11:33:01;3.50;;;1.70;;
31798;SDS011;18374;51.136;3.502;2023-07-29T11:35:29;3.85;;;1.75;;
31798;SDS011;18374;51.136;3.502;2023-07-29T11:37:59;3.13;;;1.70;;
31798;SDS011;18374;51.136;3.502;2023-07-29T11:40:27;1.55;;;1.45;;
31798;SDS011;18374;51.136;3.502;2023-07-29T11:42:55;2.85;;;1.40;;
31798;SDS011;18374;51.136;3.502;2023-07-29T11:45:23;2.10;;;1.67;;
31798;SDS011;18374;51.136;3.502;2023-07-29T11:48:06;2.92;;;1.80;;
31798;SDS011;18374;51.136;3.502;2023-07-29T11:50:34;3.88;;;1.70;;
31798;SDS011;18374;51.136;3.502;2023-07-29T11:53:02;3.70;;;1.92;;
31798;SDS011;18374;51.136;3.502;2023-07-29T11:55:30;1.85;;;1.55;;
31798;SDS011;18374;51.136;3.502;2023-07-29T11:57:58;2.88;;;1.30;;
31798;SDS011;18374;51.136;3.502;2023-07-29T12:00:25;4.65;;;1.70;;
31798;SDS011;18374;51.136;3.502;2023-07-29T12:02:53;4.22;;;1.70;;
31798;SDS011;18374;51.136;3.502;2023-07-29T12:05:22;3.28;;;1.50;;
31798;SDS011;18374;51.136;3.502;2023-07-29T12:07:50;4.53;;;1.70;;
31798;SDS011;18374;51.136;3.502;2023-07-29T12:10:18;2.13;;;1.35;;
31798;SDS011;18374;51.136;3.502;2023-07-29T12:12:48;6.28;;;1.40;;
31798;SDS011;18374;51.136;3.502;2023-07-29T12:15:27;1.38;;;1.10;;
31798;SDS011;18374;51.136;3.502;2023-07-29T12:17:56;1.95;;;1.38;;
31798;SDS011;18374;51.136;3.502;2023-07-29T12:20:26;2.83;;;1.58;;
31798;SDS011;18374;51.136;3.502;2023-07-29T12:22:58;1.50;;;1.40;;
31798;SDS011;18374;51.136;3.502;2023-07-29T12:25:32;2.22;;;1.20;;
31798;SDS011;18374;51.136;3.502;2023-07-29T12:28:04;3.50;;;1.60;;
31798;SDS011;18374;51.136;3.502;2023-07-29T12:30:33;1.73;;;1.40;;
31798;SDS011;18374;51.136;3.502;2023-07-29T12:33:01;1.60;;;1.20;;
31798;SDS011;18374;51.136;3.502;2023-07-29T12:35:35;1.63;;;1.30;;
31798;SDS011;18374;51.136;3.502;2023-07-29T12:38:04;2.40;;;1.30;;
31798;SDS011;18374;51.136;3.502;2023-07-29T12:40:33;2.97;;;1.58;;
31798;SDS011;18374;51.136;3.502;2023-07-29T12:43:07;1.20;;;1.10;;
31798;SDS011;18374;51.136;3.502;2023-07-29T12:45:35;1.20;;;1.10;;
31798;SDS011;18374;51.136;3.502;2023-07-29T12:48:06;2.75;;;1.13;;
31798;SDS011;18374;51.136;3.502;2023-07-29T12:50:36;2.25;;;1.23;;
31798;SDS011;18374;51.136;3.502;2023-07-29T12:53:07;6.47;;;1.80;;
31798;SDS011;18374;51.136;3.502;2023-07-29T12:55:37;5.25;;;1.48;;
31798;SDS011;18374;51.136;3.502;2023-07-29T12:58:05;4.05;;;1.77;;
31798;SDS011;18374;51.136;3.502;2023-07-29T13:00:33;4.03;;;1.70;;
31798;SDS011;18374;51.136;3.502;2023-07-29T13:03:01;2.22;;;1.42;;
31798;SDS011;18374;51.136;3.502;2023-07-29T13:05:32;1.90;;;1.50;;
31798;SDS011;18374;51.136;3.502;2023-07-29T13:08:00;5.53;;;2.05;;
31798;SDS011;18374;51.136;3.502;2023-07-29T13:10:28;6.63;;;2.20;;
31798;SDS011;18374;51.136;3.502;2023-07-29T13:12:55;4.70;;;1.88;;
31798;SDS011;18374;51.136;3.502;2023-07-29T13:15:23;3.95;;;2.20;;
31798;SDS011;18374;51.136;3.502;2023-07-29T13:17:51;5.75;;;2.20;;
31798;SDS011;18374;51.136;3.502;2023-07-29T13:20:20;2.42;;;1.98;;
31798;SDS011;18374;51.136;3.502;2023-07-29T13:22:47;3.10;;;2.13;;
31798;SDS011;18374;51.136;3.502;2023-07-29T13:25:15;4.13;;;3.22;;
31798;SDS011;18374;51.136;3.502;2023-07-29T13:27:43;4.63;;;2.70;;
31798;SDS011;18374;51.136;3.502;2023-07-29T13:30:11;4.68;;;2.67;;
31798;SDS011;18374;51.136;3.502;2023-07-29T13:32:38;4.00;;;2.47;;
31798;SDS011;18374;51.136;3.502;2023-07-29T13:35:06;3.60;;;2.70;;
31798;SDS011;18374;51.136;3.502;2023-07-29T13:37:34;4.75;;;2.58;;
31798;SDS011;18374;51.136;3.502;2023-07-29T13:40:02;5.00;;;2.90;;
31798;SDS011;18374;51.136;3.502;2023-07-29T13:42:30;6.22;;;2.88;;
31798;SDS011;18374;51.136;3.502;2023-07-29T13:44:58;4.43;;;2.35;;
31798;SDS011;18374;51.136;3.502;2023-07-29T13:47:26;5.00;;;2.63;;
31798;SDS011;18374;51.136;3.502;2023-07-29T13:49:54;3.85;;;2.47;;
31798;SDS011;18374;51.136;3.502;2023-07-29T13:52:21;3.65;;;2.20;;
31798;SDS011;18374;51.136;3.502;2023-07-29T13:54:49;2.85;;;2.10;;
31798;SDS011;18374;51.136;3.502;2023-07-29T13:57:17;1.92;;;1.73;;
31798;SDS011;18374;51.136;3.502;2023-07-29T13:59:45;1.85;;;1.33;;
31798;SDS011;18374;51.136;3.502;2023-07-29T14:02:12;2.28;;;1.73;;
31798;SDS011;18374;51.136;3.502;2023-07-29T14:04:40;1.27;;;1.17;;
31798;SDS011;18374;51.136;3.502;2023-07-29T14:07:08;1.33;;;1.00;;
31798;SDS011;18374;51.136;3.502;2023-07-29T14:09:36;1.55;;;1.00;;
31798;SDS011;18374;51.136;3.502;2023-07-29T14:12:06;3.33;;;1.00;;
31798;SDS011;18374;51.136;3.502;2023-07-29T14:14:34;0.95;;;0.90;;
31798;SDS011;18374;51.136;3.502;2023-07-29T14:17:02;1.35;;;1.00;;
31798;SDS011;18374;51.136;3.502;2023-07-29T14:19:31;1.10;;;1.00;;
31798;SDS011;18374;51.136;3.502;2023-07-29T14:21:58;1.08;;;0.98;;
31798;SDS011;18374;51.136;3.502;2023-07-29T14:24:26;1.38;;;1.00;;
31798;SDS011;18374;51.136;3.502;2023-07-29T14:26:54;4.43;;;1.30;;
31798;SDS011;18374;51.136;3.502;2023-07-29T14:29:22;1.70;;;1.10;;
31798;SDS011;18374;51.136;3.502;2023-07-29T14:31:49;1.30;;;0.93;;
31798;SDS011;18374;51.136;3.502;2023-07-29T14:34:17;1.35;;;0.90;;
31798;SDS011;18374;51.136;3.502;2023-07-29T14:36:45;1.50;;;0.73;;
31798;SDS011;18374;51.136;3.502;2023-07-29T14:39:13;1.27;;;0.88;;
31798;SDS011;18374;51.136;3.502;2023-07-29T14:41:41;0.85;;;0.82;;
31798;SDS011;18374;51.136;3.502;2023-07-29T14:44:08;3.38;;;1.60;;
31798;SDS011;18374;51.136;3.502;2023-07-29T14:46:36;2.28;;;1.20;;
31798;SDS011;18374;51.136;3.502;2023-07-29T14:49:04;1.35;;;1.20;;
31798;SDS011;18374;51.136;3.502;2023-07-29T14:51:32;3.75;;;1.35;;
31798;SDS011;18374;51.136;3.502;2023-07-29T14:54:00;3.22;;;1.35;;
31798;SDS011;18374;51.136;3.502;2023-07-29T14:56:27;2.05;;;1.20;;
31798;SDS011;18374;51.136;3.502;2023-07-29T14:58:55;5.10;;;1.30;;
31798;SDS011;18374;51.136;3.502;2023-07-29T15:01:23;2.70;;;1.25;;
31798;SDS011;18374;51.136;3.502;2023-07-29T15:03:51;6.97;;;2.20;;
31798;SDS011;18374;51.136;3.502;2023-07-29T15:06:19;6.90;;;1.38;;
31798;SDS011;18374;51.136;3.502;2023-07-29T15:08:46;5.22;;;1.38;;